sensor_id;sensor_type;location;lat;lon;timestamp;P1;durP1;ratioP1;P2;durP2;ratioP2
64601;SDS011;51013;42.630;23.192;2022-12-29T04:50:58;48.42;;;23.45;;
64601;SDS011;51013;42.630;23.192;2022-12-29T04:53:31;52.40;;;24.67;;
64601;SDS011;51013;42.630;23.192;2022-12-29T04:55:58;52.08;;;25.33;;
64601;SDS011;51013;42.630;23.192;2022-12-29T05:12:15;52.88;;;25.80;;
64601;SDS011;51013;42.630;23.192;2022-12-29T05:14:43;50.03;;;25.90;;
64601;SDS011;51013;42.630;23.192;2022-12-29T05:17:10;51.55;;;24.60;;
64601;SDS011;51013;42.630;23.192;2022-12-29T05:19:43;46.13;;;25.17;;
64601;SDS011;51013;42.630;23.192;2022-12-29T05:27:55;62.30;;;28.92;;
64601;SDS011;51013;42.630;23.192;2022-12-29T05:31:01;51.05;;;25.75;;
64601;SDS011;51013;42.630;23.192;2022-12-29T16:47:43;175.70;;;68.07;;
64601;SDS011;51013;42.630;23.192;2022-12-29T16:56:47;113.47;;;50.22;;
64601;SDS011;51013;42.630;23.192;2022-12-29T16:59:32;114.68;;;50.55;;
64601;SDS011;51013;42.630;23.192;2022-12-29T17:02:14;105.35;;;45.10;;
64601;SDS011;51013;42.630;23.192;2022-12-29T17:07:40;136.48;;;55.20;;
64601;SDS011;51013;42.630;23.192;2022-12-29T17:10:29;112.82;;;47.28;;
64601;SDS011;51013;42.630;23.192;2022-12-29T17:13:09;95.78;;;42.65;;
64601;SDS011;51013;42.630;23.192;2022-12-29T17:15:53;91.28;;;41.40;;
64601;SDS011;51013;42.630;23.192;2022-12-29T17:18:25;98.82;;;42.10;;
64601;SDS011;51013;42.630;23.192;2022-12-29T17:20:53;114.45;;;49.10;;
64601;SDS011;51013;42.630;23.192;2022-12-29T17:23:34;120.68;;;49.90;;
64601;SDS011;51013;42.630;23.192;2022-12-29T17:26:06;133.30;;;55.10;;
64601;SDS011;51013;42.630;23.192;2022-12-29T17:28:34;113.00;;;50.58;;
64601;SDS011;51013;42.630;23.192;2022-12-29T17:31:02;111.47;;;49.83;;
64601;SDS011;51013;42.630;23.192;2022-12-29T17:33:33;111.53;;;45.47;;
64601;SDS011;51013;42.630;23.192;2022-12-29T17:36:07;118.20;;;48.47;;
64601;SDS011;51013;42.630;23.192;2022-12-29T17:38:51;196.85;;;65.88;;
64601;SDS011;51013;42.630;23.192;2022-12-29T17:41:33;214.15;;;69.22;;
64601;SDS011;51013;42.630;23.192;2022-12-29T17:44:20;139.35;;;52.28;;
64601;SDS011;51013;42.630;23.192;2022-12-29T17:46:56;128.07;;;51.35;;
64601;SDS011;51013;42.630;23.192;2022-12-29T17:49:48;115.97;;;49.30;;
64601;SDS011;51013;42.630;23.192;2022-12-29T17:52:17;122.32;;;48.13;;
64601;SDS011;51013;42.630;23.192;2022-12-29T17:54:49;154.98;;;55.95;;
64601;SDS011;51013;42.630;23.192;2022-12-29T17:57:36;124.32;;;47.78;;
64601;SDS011;51013;42.630;23.192;2022-12-29T18:00:31;135.25;;;50.08;;
64601;SDS011;51013;42.630;23.192;2022-12-29T18:02:58;145.77;;;51.10;;
64601;SDS011;51013;42.630;23.192;2022-12-29T18:05:25;179.07;;;62.85;;
64601;SDS011;51013;42.630;23.192;2022-12-29T18:08:04;192.60;;;66.10;;
64601;SDS011;51013;42.630;23.192;2022-12-29T18:14:21;214.60;;;67.80;;
64601;SDS011;51013;42.630;23.192;2022-12-29T18:16:49;179.93;;;60.53;;
64601;SDS011;51013;42.630;23.192;2022-12-29T18:19:16;228.15;;;74.55;;
64601;SDS011;51013;42.630;23.192;2022-12-29T18:21:58;210.63;;;68.30;;
64601;SDS011;51013;42.630;23.192;2022-12-29T18:24:43;169.45;;;57.03;;
64601;SDS011;51013;42.630;23.192;2022-12-29T18:27:14;189.70;;;61.08;;
64601;SDS011;51013;42.630;23.192;2022-12-29T18:29:46;166.00;;;57.25;;
